createdAt,value
2023-03-12T00:04:57.907Z,1011.6
2023-03-12T00:09:58.932Z,1011.5
2023-03-12T00:15:00.488Z,1011.5
2023-03-12T00:20:02.461Z,1011.5
2023-03-12T00:24:57.496Z,1011.5
2023-03-12T00:30:01.724Z,1011.5
2023-03-12T00:35:00.982Z,1011.6
2023-03-12T00:39:59.645Z,1011.5
2023-03-12T00:45:00.772Z,1011.4
2023-03-12T00:49:57.885Z,1011.4
2023-03-12T00:54:57.553Z,1011.2
2023-03-12T00:59:57.555Z,1011.1
2023-03-12T01:04:57.557Z,1011.1
2023-03-12T01:09:57.500Z,1011
2023-03-12T01:14:57.453Z,1011.1
2023-03-12T01:19:57.469Z,1011.1
2023-03-12T01:24:57.512Z,1011.1
2023-03-12T01:29:57.723Z,1011.1
2023-03-12T01:34:58.008Z,1011.1
2023-03-12T01:39:57.861Z,1011.1
2023-03-12T01:44:58.867Z,1011
2023-03-12T01:49:57.683Z,1010.9
2023-03-12T01:54:57.365Z,1010.9
2023-03-12T01:59:58.858Z,1010.8
2023-03-12T02:04:57.613Z,1010.7
2023-03-12T02:09:57.319Z,1010.7
2023-03-12T02:14:57.405Z,1010.6
2023-03-12T02:19:57.548Z,1010.5
2023-03-12T02:24:57.516Z,1010.4
2023-03-12T02:29:58.260Z,1010.2
2023-03-12T02:34:57.482Z,1010.2
2023-03-12T02:39:57.391Z,1010.1
2023-03-12T02:44:58.132Z,1010
2023-03-12T02:49:57.475Z,1010
2023-03-12T02:54:57.776Z,1009.9
2023-03-12T02:59:57.517Z,1009.8
2023-03-12T03:04:57.318Z,1009.8
2023-03-12T03:09:57.585Z,1009.7
2023-03-12T03:14:57.540Z,1009.7
2023-03-12T03:19:57.351Z,1009.6
2023-03-12T03:24:57.360Z,1009.5
2023-03-12T03:29:57.334Z,1009.5
2023-03-12T03:34:57.324Z,1009.4
2023-03-12T03:39:57.289Z,1009.3
2023-03-12T03:44:57.470Z,1009.3
2023-03-12T03:49:57.356Z,1009.2
2023-03-12T03:54:57.646Z,1009.3
2023-03-12T03:59:57.492Z,1009.3
2023-03-12T04:04:57.533Z,1009.2
2023-03-12T04:09:57.468Z,1009.1
2023-03-12T04:14:57.284Z,1009
2023-03-12T04:19:57.508Z,1008.9
2023-03-12T04:24:57.510Z,1008.9
2023-03-12T04:29:57.292Z,1008.8
2023-03-12T04:34:57.315Z,1008.8
2023-03-12T04:39:57.484Z,1008.6
2023-03-12T04:44:57.516Z,1008.4
2023-03-12T04:49:57.552Z,1008.3
2023-03-12T04:54:57.458Z,1008.3
2023-03-12T04:59:57.164Z,1008.1
2023-03-12T05:04:57.310Z,1008.1
2023-03-12T05:09:57.394Z,1008.1
2023-03-12T05:14:57.364Z,1007.9
2023-03-12T05:19:57.446Z,1008
2023-03-12T05:24:57.433Z,1007.9
2023-03-12T05:29:57.540Z,1007.9
2023-03-12T05:34:57.310Z,1007.9
2023-03-12T05:39:57.338Z,1007.9
2023-03-12T05:44:57.395Z,1007.9
2023-03-12T05:49:57.492Z,1007.9
2023-03-12T05:54:57.269Z,1007.9
2023-03-12T05:59:57.304Z,1008
2023-03-12T06:04:57.479Z,1007.9
2023-03-12T06:09:57.380Z,1007.8
2023-03-12T06:14:57.124Z,1007.9
2023-03-12T06:19:57.283Z,1007.9
2023-03-12T06:24:57.256Z,1007.8
2023-03-12T06:29:57.473Z,1007.7
2023-03-12T06:34:57.082Z,1007.7
2023-03-12T06:39:57.355Z,1007.6
2023-03-12T06:44:57.196Z,1007.5
2023-03-12T06:49:57.403Z,1007.5
2023-03-12T06:54:57.510Z,1007.4
2023-03-12T06:59:57.337Z,1007.3
2023-03-12T07:04:57.520Z,1007.2
2023-03-12T07:09:57.279Z,1007.2
2023-03-12T07:14:57.372Z,1007.3
2023-03-12T07:19:57.508Z,1007.2
2023-03-12T07:24:57.329Z,1007.2
2023-03-12T07:29:57.110Z,1007.4
2023-03-12T07:34:57.380Z,1007.5
2023-03-12T07:39:57.412Z,1007.5
2023-03-12T07:44:57.216Z,1007.5
2023-03-12T07:49:57.397Z,1007.5
2023-03-12T07:54:57.586Z,1007.5
2023-03-12T07:59:57.136Z,1007.4
2023-03-12T08:04:57.376Z,1007.4
2023-03-12T08:09:57.011Z,1007.4
2023-03-12T08:14:57.313Z,1007.5
2023-03-12T08:19:57.287Z,1007.4
2023-03-12T08:24:57.186Z,1007.4
2023-03-12T08:29:57.473Z,1007.4
2023-03-12T08:34:57.446Z,1007.5
2023-03-12T08:39:57.224Z,1007.5
2023-03-12T08:44:57.023Z,1007.5
2023-03-12T08:49:57.457Z,1007.5
2023-03-12T08:54:57.030Z,1007.6
2023-03-12T08:59:57.114Z,1007.6
2023-03-12T09:04:57.287Z,1007.6
2023-03-12T09:09:56.998Z,1007.5
2023-03-12T09:15:02.978Z,1007.5
2023-03-12T09:19:57.199Z,1007.4
2023-03-12T09:24:57.252Z,1007.4
2023-03-12T09:30:00.582Z,1007.5
2023-03-12T09:34:57.065Z,1007.4
2023-03-12T09:39:56.950Z,1007.5
2023-03-12T09:44:59.209Z,1007.5
2023-03-12T09:49:57.067Z,1007.5
2023-03-12T09:54:57.175Z,1007.6
2023-03-12T09:59:57.388Z,1007.6
2023-03-12T10:05:00.141Z,1007.7
2023-03-12T10:10:02.772Z,1007.6
2023-03-12T10:14:56.894Z,1007.6
2023-03-12T10:19:56.973Z,1007.6
2023-03-12T10:24:57.277Z,1007.6
2023-03-12T10:29:57.020Z,1007.6
2023-03-12T10:34:57.156Z,1007.6
2023-03-12T10:39:57.221Z,1007.6
2023-03-12T10:44:58.261Z,1007.5
2023-03-12T10:50:10.256Z,1007.5
2023-03-12T10:54:56.939Z,1007.6
2023-03-12T11:00:05.089Z,1007.6
2023-03-12T11:04:56.894Z,1007.6
2023-03-12T11:09:57.140Z,1007.6
2023-03-12T11:15:00.135Z,1007.7
2023-03-12T11:19:56.880Z,1007.8
2023-03-12T11:24:56.816Z,1007.8
2023-03-12T11:29:57.099Z,1007.9
2023-03-12T11:34:57.106Z,1007.8
2023-03-12T11:39:56.973Z,1007.8
2023-03-12T11:44:56.949Z,1007.8
2023-03-12T11:49:57.331Z,1007.8
2023-03-12T11:54:56.897Z,1007.7
2023-03-12T12:00:01.630Z,1007.6
2023-03-12T12:04:56.888Z,1007.4
2023-03-12T12:10:02.151Z,1007.5
2023-03-12T12:14:57.123Z,1007.5
2023-03-12T12:19:56.907Z,1007.4
2023-03-12T12:24:56.816Z,1007.3
2023-03-12T12:30:04.099Z,1007.3
2023-03-12T12:34:56.791Z,1007.4
2023-03-12T12:40:04.310Z,1007.5
2023-03-12T12:44:56.821Z,1007.4
2023-03-12T12:49:56.952Z,1007.2
2023-03-12T12:54:56.924Z,1007.1
2023-03-12T12:59:57.042Z,1007.1
2023-03-12T13:04:57.737Z,1007
2023-03-12T13:09:57.786Z,1006.9
2023-03-12T13:14:56.857Z,1007.1
2023-03-12T13:20:01.529Z,1007.1
2023-03-12T13:24:56.889Z,1007.1
2023-03-12T13:29:57.357Z,1007.1
2023-03-12T13:34:57.200Z,1007
2023-03-12T13:39:56.967Z,1007.1
2023-03-12T13:45:10.162Z,1007.3
2023-03-12T13:49:58.429Z,1007.1
2023-03-12T13:54:56.967Z,1007.1
2023-03-12T13:59:57.025Z,1007.2
2023-03-12T14:04:58.207Z,1007.2
2023-03-12T14:09:56.850Z,1007.5
2023-03-12T14:14:56.698Z,1007.4
2023-03-12T14:19:56.725Z,1007.5
2023-03-12T14:24:56.660Z,1007.5
2023-03-12T14:29:56.737Z,1007.6
2023-03-12T14:34:56.980Z,1007.6
2023-03-12T14:39:57.013Z,1007.5
2023-03-12T14:44:56.686Z,1007.7
2023-03-12T14:49:56.768Z,1007.6
2023-03-12T14:54:56.724Z,1007.6
2023-03-12T14:59:58.764Z,1007.6
2023-03-12T15:04:56.907Z,1007.6
2023-03-12T15:09:56.788Z,1007.5
2023-03-12T15:14:56.724Z,1007.6
2023-03-12T15:19:57.318Z,1007.6
2023-03-12T15:25:00.707Z,1007.5
2023-03-12T15:29:56.724Z,1007.4
2023-03-12T15:34:59.088Z,1007.4
2023-03-12T15:39:59.888Z,1007.4
2023-03-12T15:44:56.864Z,1007.3
2023-03-12T15:49:58.453Z,1007.3
2023-03-12T15:54:58.878Z,1007.2
2023-03-12T15:59:56.950Z,1007.3
2023-03-12T16:04:57.047Z,1007.2
2023-03-12T16:09:56.893Z,1007.2
2023-03-12T16:14:57.093Z,1007.1
2023-03-12T16:19:56.903Z,1007.1
2023-03-12T16:24:56.786Z,1007.1
2023-03-12T16:29:56.693Z,1007.1
2023-03-12T16:34:56.805Z,1007
2023-03-12T16:39:57.789Z,1007
2023-03-12T16:44:56.721Z,1007.1
2023-03-12T16:49:56.928Z,1007
2023-03-12T16:54:56.936Z,1007.1
2023-03-12T16:59:56.730Z,1007.1
2023-03-12T17:04:56.920Z,1007.2
2023-03-12T17:09:56.567Z,1007.4
2023-03-12T17:14:57.824Z,1007.4
2023-03-12T17:19:56.963Z,1007.1
2023-03-12T17:24:56.876Z,1007.2
2023-03-12T17:29:56.611Z,1007.2
2023-03-12T17:34:56.537Z,1007.2
2023-03-12T17:39:56.978Z,1007.4
2023-03-12T17:44:56.816Z,1007.3
2023-03-12T17:49:56.668Z,1007.4
2023-03-12T17:54:56.779Z,1007.4
2023-03-12T17:59:56.500Z,1007.4
2023-03-12T18:04:57.101Z,1007.3
2023-03-12T18:09:56.506Z,1007.2
2023-03-12T18:14:56.761Z,1007.2
2023-03-12T18:19:56.728Z,1007.2
2023-03-12T18:24:56.730Z,1007.3
2023-03-12T18:29:56.483Z,1007.2
2023-03-12T18:34:56.570Z,1007.3
2023-03-12T18:39:56.708Z,1007.4
2023-03-12T18:44:56.519Z,1007.2
2023-03-12T18:49:56.666Z,1007.3
2023-03-12T18:54:56.536Z,1007.2
2023-03-12T18:59:56.597Z,1007.2
2023-03-12T19:04:56.584Z,1007.2
2023-03-12T19:09:56.687Z,1007.2
2023-03-12T19:14:56.419Z,1007.1
2023-03-12T19:19:56.910Z,1007.1
2023-03-12T19:24:56.668Z,1007
2023-03-12T19:29:56.648Z,1007
2023-03-12T19:34:56.708Z,1006.9
2023-03-12T19:39:56.499Z,1006.9
2023-03-12T19:44:56.578Z,1006.8
2023-03-12T19:49:56.456Z,1006.8
2023-03-12T19:55:04.176Z,1006.7
2023-03-12T19:59:56.589Z,1006.7
2023-03-12T20:04:56.665Z,1006.5
2023-03-12T20:09:56.651Z,1006.5
2023-03-12T20:14:56.511Z,1006.3
2023-03-12T20:19:56.442Z,1006.3
2023-03-12T20:24:56.468Z,1006.2
2023-03-12T20:29:56.592Z,1006.1
2023-03-12T20:34:56.909Z,1006
2023-03-12T20:39:56.383Z,1006
2023-03-12T20:44:56.448Z,1005.9
2023-03-12T20:49:56.470Z,1005.8
2023-03-12T20:54:56.922Z,1005.8
2023-03-12T20:59:56.322Z,1005.7
2023-03-12T21:04:56.770Z,1005.6
2023-03-12T21:09:56.653Z,1005.6
2023-03-12T21:14:56.500Z,1005.5
2023-03-12T21:19:56.366Z,1005.3
2023-03-12T21:24:56.487Z,1005.2
2023-03-12T21:29:56.480Z,1005.2
2023-03-12T21:34:56.487Z,1005.1
2023-03-12T21:39:56.778Z,1005
2023-03-12T21:44:56.376Z,1004.9
2023-03-12T21:49:56.513Z,1004.7
2023-03-12T21:54:56.406Z,1004.7
2023-03-12T21:59:56.384Z,1004.5
2023-03-12T22:04:56.764Z,1004.4
2023-03-12T22:09:56.323Z,1004.4
2023-03-12T22:14:56.778Z,1004.3
2023-03-12T22:19:56.630Z,1004.2
2023-03-12T22:24:56.620Z,1004.1
2023-03-12T22:29:56.601Z,1004.1
2023-03-12T22:34:56.378Z,1004
2023-03-12T22:39:56.731Z,1003.9
2023-03-12T22:44:56.332Z,1003.9
2023-03-12T22:49:56.586Z,1003.8
2023-03-12T22:54:56.340Z,1003.7
2023-03-12T22:59:56.497Z,1003.6
2023-03-12T23:04:56.686Z,1003.5
2023-03-12T23:09:56.301Z,1003.3
2023-03-12T23:14:56.450Z,1003.2
2023-03-12T23:19:56.317Z,1003.1
2023-03-12T23:24:56.270Z,1002.8
2023-03-12T23:29:56.462Z,1002.7
2023-03-12T23:34:56.494Z,1002.5
2023-03-12T23:39:56.231Z,1002.4
2023-03-12T23:44:56.286Z,1002.2
2023-03-12T23:49:56.456Z,1002
2023-03-12T23:54:56.249Z,1001.9
2023-03-12T23:59:56.278Z,1001.7
